Time;durP1;ratioP1;P1;durP2;ratioP2;P2;SDS_P1;SDS_P2;PMS_P1;PMS_P2;Temp;Humidity;BMP_temperature;BMP_pressure;BME280_temperature;BME280_humidity;BME280_pressure;Samples;Min_cycle;Max_cycle;Signal;HPM_P1;HPM_P2
2020/12/14 00:05:06;;;;;;;191.63;66.13;;;;;;;3.49;84.10;100700.83;5177991;55;1140299;-82
2020/12/14 00:10:11;;;;;;;207.50;67.23;;;;;;;3.52;84.21;100717.20;5175382;55;1142827;-81
2020/12/14 00:15:18;;;;;;;167.57;64.23;;;;;;;3.59;84.19;100714.33;5198223;55;1142539;-81
2020/12/14 00:20:24;;;;;;;158.77;61.53;;;;;;;3.60;84.27;100723.87;5172882;55;1140833;-82
2020/12/14 00:25:30;;;;;;;167.32;60.48;;;;;;;3.54;84.02;100732.83;5205195;55;1150380;-83
2020/12/14 00:30:35;;;;;;;178.70;58.58;;;;;;;3.50;83.96;100740.45;5158129;55;1142468;-81
2020/12/14 00:35:41;;;;;;;186.60;67.30;;;;;;;3.52;84.12;100756.42;5215190;55;1142384;-82
2020/12/14 00:40:46;;;;;;;180.00;64.73;;;;;;;3.52;84.12;100756.42;5178203;55;1140361;-81
2020/12/14 00:45:52;;;;;;;193.30;67.97;;;;;;;3.53;84.48;100762.05;5178225;55;1140434;-82
2020/12/14 00:50:57;;;;;;;171.47;60.00;;;;;;;3.51;84.42;100766.98;5164508;55;1140599;-82
2020/12/14 00:56:07;;;;;;;155.80;55.13;;;;;;;3.52;84.31;100767.34;5184251;55;1140287;-82
2020/12/14 01:01:15;;;;;;;181.10;61.20;;;;;;;3.52;84.04;100772.12;5242837;55;1142509;-82
2020/12/14 01:06:21;;;;;;;172.77;63.03;;;;;;;3.58;84.33;100770.16;5163919;55;1142546;-81
2020/12/14 01:11:32;;;;;;;183.00;65.07;;;;;;;3.65;84.60;100776.83;5184414;55;1140725;-82
2020/12/14 01:16:37;;;;;;;197.13;67.57;;;;;;;3.66;84.53;100762.83;5164561;55;1140518;-82
2020/12/14 01:21:44;;;;;;;178.87;61.50;;;;;;;3.62;84.20;100762.11;5162713;55;1140585;-81
2020/12/14 01:26:50;;;;;;;161.70;61.20;;;;;;;3.59;83.93;100760.09;5182901;55;1142507;-81
2020/12/14 01:31:55;;;;;;;191.60;68.80;;;;;;;3.60;84.08;100766.56;5164121;55;1142550;-81
2020/12/14 01:37:01;;;;;;;184.03;64.77;;;;;;;3.61;84.41;100760.41;5204245;55;1140261;-82
2020/12/14 01:42:07;;;;;;;165.00;62.63;;;;;;;3.59;84.30;100766.16;5181737;55;1140462;-81
2020/12/14 01:47:13;;;;;;;158.40;56.87;;;;;;;3.60;84.21;100770.94;5164136;55;1140362;-81
2020/12/14 01:52:19;;;;;;;166.97;61.47;;;;;;;3.63;84.23;100772.97;5181064;55;1142565;-82
2020/12/14 01:57:25;;;;;;;167.93;60.27;;;;;;;3.67;84.42;100767.97;5162170;55;1142886;-82
2020/12/14 02:02:31;;;;;;;168.05;60.88;;;;;;;3.68;84.43;100772.73;5184215;55;1140498;-85
2020/12/14 02:07:37;;;;;;;166.82;59.73;;;;;;;3.68;84.49;100767.50;5162514;55;1140508;-82
2020/12/14 02:12:43;;;;;;;161.47;57.75;;;;;;;3.67;84.08;100762.73;5183903;55;1140696;-82
2020/12/14 02:17:49;;;;;;;166.80;58.25;;;;;;;3.61;83.85;100756.95;5162946;55;1142887;-82
2020/12/14 02:22:54;;;;;;;161.53;61.60;;;;;;;3.56;84.02;100766.75;5244228;56;1140411;-82
2020/12/14 02:28:00;;;;;;;167.07;61.63;;;;;;;3.54;84.23;100770.74;5164945;55;1140646;-82
2020/12/14 02:33:05;;;;;;;162.63;60.47;;;;;;;3.55;84.45;100769.83;5164818;55;1140325;-82
2020/12/14 02:38:11;;;;;;;150.43;56.20;;;;;;;3.58;84.42;100766.23;5164920;55;1140378;-83
2020/12/14 02:43:16;;;;;;;150.87;57.67;;;;;;;3.56;84.14;100751.06;5182023;55;1142538;-83
2020/12/14 02:48:22;;;;;;;167.30;62.70;;;;;;;3.53;84.27;100755.97;5162022;55;1142364;-82
2020/12/14 02:53:27;;;;;;;176.18;63.65;;;;;;;3.55;84.47;100760.67;5197337;55;1140471;-82
2020/12/14 02:58:33;;;;;;;158.50;59.17;;;;;;;3.56;84.55;100768.06;5178627;55;1140685;-83
2020/12/14 03:03:38;;;;;;;171.70;63.50;;;;;;;3.53;84.36;100769.05;5196144;55;1140617;-82
2020/12/14 03:08:44;;;;;;;167.95;62.55;;;;;;;3.47;84.31;100770.64;5178323;55;1142454;-82
2020/12/14 03:13:49;;;;;;;179.37;63.50;;;;;;;3.49;84.40;100768.81;5198190;55;1142437;-82
2020/12/14 03:18:55;;;;;;;190.83;65.23;;;;;;;3.50;84.52;100765.28;5178294;55;1140260;-82
2020/12/14 03:24:01;;;;;;;172.00;63.47;;;;;;;3.46;84.62;100774.17;5178354;55;1140503;-81
2020/12/14 03:29:07;;;;;;;182.67;63.83;;;;;;;3.41;84.52;100770.44;5178327;55;1140357;-82
2020/12/14 03:34:13;;;;;;;198.77;68.03;;;;;;;3.44;84.53;100776.00;5198046;55;1142387;-82
2020/12/14 03:39:18;;;;;;;189.70;63.57;;;;;;;3.42;84.50;100768.67;5175611;55;1142544;-82
2020/12/14 03:44:24;;;;;;;197.77;65.47;;;;;;;3.38;84.82;100769.27;5218615;55;1140459;-82
2020/12/14 03:49:29;;;;;;;200.03;60.87;;;;;;;3.38;84.93;100772.34;5176260;55;1140430;-82
2020/12/14 03:54:35;;;;;;;189.40;61.57;;;;;;;3.42;84.91;100766.91;5178844;55;1140745;-82
2020/12/14 03:59:40;;;;;;;183.50;64.70;;;;;;;3.45;84.67;100770.70;5198493;55;1142867;-82
2020/12/14 04:04:46;;;;;;;187.18;60.80;;;;;;;3.46;84.64;100771.55;5196564;55;1142539;-82
2020/12/14 04:09:51;;;;;;;195.72;66.75;;;;;;;3.40;84.79;100781.81;5176865;55;1140275;-82
2020/12/14 04:14:57;;;;;;;196.77;68.10;;;;;;;3.35;84.94;100783.80;5196964;55;1140355;-82
2020/12/14 04:20:02;;;;;;;205.17;68.07;;;;;;;3.30;84.89;100780.53;5178052;55;1140588;-82
2020/12/14 04:25:08;;;;;;;205.60;69.17;;;;;;;3.35;84.87;100779.03;5218230;55;1142433;-81
2020/12/14 04:30:14;;;;;;;203.30;68.23;;;;;;;3.38;84.88;100786.26;5177807;55;1142405;-82
2020/12/14 04:35:20;;;;;;;210.97;68.27;;;;;;;3.45;85.21;100786.85;5195593;55;1140757;-82
2020/12/14 04:40:31;;;;;;;197.67;66.53;;;;;;;3.41;84.99;100784.83;5195517;55;1140467;-82
2020/12/14 04:45:38;;;;;;;173.20;60.40;;;;;;;3.42;84.84;100801.36;5177358;55;1141113;-81
2020/12/14 04:50:43;;;;;;;184.10;63.20;;;;;;;3.42;84.65;100807.44;5177955;55;1146455;-82
2020/12/14 04:55:49;;;;;;;170.95;58.95;;;;;;;3.34;84.55;100812.16;5177834;55;1142548;-81
2020/12/14 05:00:55;;;;;;;203.57;66.43;;;;;;;3.33;84.81;100819.61;5197756;55;1142399;-82
2020/12/14 05:06:00;;;;;;;183.50;61.00;;;;;;;3.33;85.05;100813.08;5177755;55;1140651;-82
2020/12/14 05:11:06;;;;;;;194.17;62.53;;;;;;;3.34;85.13;100817.84;5256409;55;1140418;-82
2020/12/14 05:16:11;;;;;;;190.13;67.03;;;;;;;3.35;85.03;100820.86;5177771;55;1140561;-81
2020/12/14 05:21:17;;;;;;;283.03;102.07;;;;;;;3.41;85.14;100820.58;5193969;55;1143223;-82
2020/12/14 05:26:27;;;;;;;203.27;66.27;;;;;;;3.47;85.10;100825.55;5278043;56;21124;-82
2020/12/14 05:31:33;;;;;;;183.83;64.97;;;;;;;3.42;85.02;100830.12;5178655;55;1136638;-82
2020/12/14 05:36:38;;;;;;;191.83;64.27;;;;;;;3.36;85.07;100838.25;5178062;55;1140405;-82
2020/12/14 05:41:44;;;;;;;188.13;64.23;;;;;;;3.39;85.22;100834.16;5178706;55;1142945;-82
2020/12/14 05:46:49;;;;;;;196.03;65.77;;;;;;;3.44;85.19;100843.98;5198089;55;1142457;-81
2020/12/14 05:52:03;;;;;;;221.33;90.73;;;;;;;3.43;85.21;100839.20;5177875;55;1140349;-82
2020/12/14 05:57:09;;;;;;;180.35;59.98;;;;;;;3.42;85.31;100837.50;5175944;55;1140490;-82
2020/12/14 06:02:16;;;;;;;182.73;60.47;;;;;;;3.38;85.18;100845.53;5168693;55;1140489;-82
2020/12/14 06:07:25;;;;;;;202.67;64.20;;;;;;;3.38;85.40;100837.69;5178413;55;1142608;-82
2020/12/14 06:12:32;;;;;;;198.27;64.60;;;;;;;3.39;85.42;100835.02;5235932;55;1142507;-82
2020/12/14 06:17:40;;;;;;;271.77;101.47;;;;;;;3.35;86.00;100824.33;5178702;55;1140576;-82
2020/12/14 06:23:04;;;;;;;268.15;99.85;;;;;;;3.34;85.70;100814.78;5218719;55;1142453;-82
2020/12/14 06:28:32;;;;;;;213.60;75.03;;;;;;;3.37;85.57;100826.38;5178280;55;1142721;-82
2020/12/14 06:33:40;;;;;;;198.80;70.90;;;;;;;3.39;85.63;100827.17;5174926;55;1142795;-82
2020/12/14 06:38:47;;;;;;;199.40;63.67;;;;;;;3.39;85.83;100820.64;5198861;55;1142467;-82
2020/12/14 06:44:15;;;;;;;173.65;60.03;;;;;;;3.37;85.98;100832.07;5178584;55;1140573;-82
2020/12/14 06:49:30;;;;;;;181.80;63.87;;;;;;;3.38;85.94;100832.47;5176757;55;1140321;-81
2020/12/14 06:54:46;;;;;;;304.48;111.65;;;;;;;3.41;86.09;100844.10;5184383;55;1142432;-83
2020/12/14 06:59:55;;;;;;;332.27;130.50;;;;;;;3.48;86.04;100856.86;5182694;55;1144504;-82
2020/12/14 07:05:02;;;;;;;267.07;98.03;;;;;;;3.58;86.23;100858.61;5177286;55;1142626;-82
2020/12/14 07:10:16;;;;;;;209.83;71.80;;;;;;;3.56;86.08;100859.13;5175149;55;1140405;-83
2020/12/14 07:15:28;;;;;;;185.23;63.37;;;;;;;3.54;86.00;100858.34;5175329;55;1140327;-82
2020/12/14 07:20:36;;;;;;;192.87;65.83;;;;;;;3.51;86.41;100844.94;5175575;55;1142658;-81
2020/12/14 07:25:48;;;;;;;203.02;71.50;;;;;;;3.50;86.15;100852.88;5177840;55;1142922;-81
2020/12/14 07:30:53;;;;;;;232.12;78.83;;;;;;;3.54;86.27;100856.58;5197385;55;1142427;-82
2020/12/14 07:36:11;;;;;;;271.13;99.17;;;;;;;3.57;86.37;100866.06;5174410;55;1140499;-82
2020/12/14 07:41:17;;;;;;;299.45;112.62;;;;;;;3.59;86.35;100873.39;5191734;55;1140349;-82
2020/12/14 07:46:36;;;;;;;261.23;90.87;;;;;;;3.61;86.19;100882.48;5197499;55;1142330;-82
2020/12/14 07:51:46;;;;;;;231.87;80.50;;;;;;;3.63;86.14;100884.13;5174222;55;1142865;-82
2020/12/14 07:56:58;;;;;;;269.37;99.52;;;;;;;3.70;86.18;100884.23;5212346;55;1142552;-82
2020/12/14 08:02:09;;;;;;;280.57;98.23;;;;;;;3.71;86.18;100884.63;5172490;55;1142656;-83
2020/12/14 08:07:17;;;;;;;278.63;88.57;;;;;;;3.73;86.37;100887.17;5190913;55;1140780;-83
2020/12/14 08:12:23;;;;;;;284.10;86.27;;;;;;;3.69;86.43;100875.14;5176332;55;1140629;-83
2020/12/14 08:17:29;;;;;;;249.20;79.63;;;;;;;3.69;86.28;100873.83;5174728;55;1140696;-84
2020/12/14 08:22:35;;;;;;;253.10;81.13;;;;;;;3.71;86.26;100879.85;5197271;55;1142440;-83
2020/12/14 08:27:51;;;;;;;264.30;82.53;;;;;;;3.75;86.34;100879.66;5173246;55;1148783;-83
2020/12/14 08:33:13;;;;;;;242.00;77.20;;;;;;;3.82;86.31;100884.14;5171891;55;1142858;-83
2020/12/14 08:38:22;;;;;;;273.10;82.50;;;;;;;3.84;86.42;100888.40;5194779;55;1140453;-83
2020/12/14 08:43:30;;;;;;;273.93;82.07;;;;;;;3.83;86.49;100883.23;5193886;55;1140301;-83
2020/12/14 08:48:57;;;;;;;234.83;75.60;;;;;;;3.84;86.34;100884.93;5186976;55;1142912;-82
2020/12/14 08:54:20;;;;;;;316.07;111.70;;;;;;;3.87;86.36;100878.27;5172429;55;1142663;-83
2020/12/14 08:59:27;;;;;;;247.07;81.87;;;;;;;3.91;86.66;100875.91;5173592;55;1144873;-82
2020/12/14 09:04:39;;;;;;;274.27;95.80;;;;;;;3.91;86.69;100888.14;5163812;55;1140468;-83
2020/12/14 09:09:44;;;;;;;235.97;80.70;;;;;;;3.96;86.66;100887.03;5201038;55;1142343;-83
2020/12/14 09:14:50;;;;;;;242.53;81.15;;;;;;;3.98;86.65;100879.94;5162425;55;1142488;-83
2020/12/14 09:19:57;;;;;;;215.07;75.23;;;;;;;4.04;86.78;100877.05;5163755;55;1142624;-83
2020/12/14 09:25:05;;;;;;;229.90;73.40;;;;;;;4.07;86.81;100867.77;5162649;55;1142560;-84
2020/12/14 09:30:10;;;;;;;222.40;70.97;;;;;;;4.07;87.03;100873.45;5223852;55;1140487;-84
2020/12/14 09:35:16;;;;;;;208.77;67.83;;;;;;;4.08;86.84;100876.47;5162914;55;1142605;-83
2020/12/14 09:40:21;;;;;;;206.77;71.77;;;;;;;4.11;87.03;100879.80;5194775;55;1142529;-82
2020/12/14 09:45:27;;;;;;;185.20;66.07;;;;;;;4.16;86.90;100892.66;5161363;55;1142874;-83
2020/12/14 09:50:33;;;;;;;224.90;78.40;;;;;;;4.19;86.96;100880.75;5163140;55;1142630;-83
2020/12/14 09:55:40;;;;;;;205.70;71.20;;;;;;;4.19;86.97;100876.83;5163239;55;1142684;-82
2020/12/14 10:00:45;;;;;;;251.70;89.42;;;;;;;4.22;87.01;100880.62;5163949;55;1142818;-83
2020/12/14 10:05:51;;;;;;;210.70;72.10;;;;;;;4.24;86.94;100878.78;5177227;55;1142668;-83
2020/12/14 10:10:57;;;;;;;199.93;66.73;;;;;;;4.27;87.03;100869.48;5177679;55;1142646;-83
2020/12/14 10:16:03;;;;;;;247.93;82.30;;;;;;;4.28;87.28;100872.46;5174291;55;1142717;-84
2020/12/14 10:21:09;;;;;;;200.63;74.33;;;;;;;4.28;87.14;100874.27;5196954;55;1140407;-84
2020/12/14 10:26:19;;;;;;;204.37;70.07;;;;;;;4.31;87.13;100868.86;5177052;55;1143073;-84
2020/12/14 10:31:24;;;;;;;194.87;70.43;;;;;;;4.29;87.01;100862.38;5177261;55;1142621;-84
2020/12/14 10:36:29;;;;;;;202.30;73.17;;;;;;;4.32;87.23;100862.25;5175554;55;1142583;-84
2020/12/14 10:41:35;;;;;;;204.33;73.83;;;;;;;4.35;87.11;100866.50;5177144;55;1142724;-84
2020/12/14 10:46:41;;;;;;;189.05;62.53;;;;;;;4.37;87.23;100870.75;5184804;55;1140857;-84
2020/12/14 10:51:47;;;;;;;176.50;60.60;;;;;;;4.35;87.18;100858.18;5179762;55;1152189;-83
2020/12/14 10:57:14;;;;;;;169.43;59.03;;;;;;;4.36;87.23;100845.94;5197487;55;1142688;-82
2020/12/14 11:02:40;;;;;;;159.33;55.33;;;;;;;4.38;87.25;100838.87;5074312;56;1142473;-83
2020/12/14 11:07:45;;;;;;;195.10;72.40;;;;;;;4.43;87.68;100829.03;5102824;56;1143011;-84
2020/12/14 11:12:51;;;;;;;183.90;65.80;;;;;;;4.41;87.70;100817.32;5152374;56;1140443;-83
2020/12/14 11:17:57;;;;;;;176.10;60.33;;;;;;;4.47;87.99;100824.86;5094901;56;1142803;-83
2020/12/14 11:23:02;;;;;;;159.13;57.27;;;;;;;4.55;88.05;100817.51;5101206;56;1142852;-83
2020/12/14 11:28:08;;;;;;;174.40;62.67;;;;;;;4.63;88.25;100815.81;5124675;56;1142605;-83
2020/12/14 11:33:13;;;;;;;171.50;60.07;;;;;;;4.65;87.74;100823.14;5109171;55;1142464;-83
2020/12/14 11:38:19;;;;;;;163.87;61.07;;;;;;;4.66;87.87;100825.30;4928771;58;1140444;-83
2020/12/14 11:43:24;;;;;;;150.73;56.43;;;;;;;4.71;87.85;100828.09;5124050;55;1142511;-83
2020/12/14 11:48:30;;;;;;;146.57;58.40;;;;;;;4.78;87.70;100822.08;5121655;55;1142577;-83
2020/12/14 11:53:36;;;;;;;158.43;57.43;;;;;;;4.84;87.69;100821.33;5117197;55;1142563;-82
2020/12/14 11:58:42;;;;;;;144.60;49.33;;;;;;;4.95;87.73;100823.41;5234709;54;1142875;-83
2020/12/14 12:03:48;;;;;;;183.07;66.40;;;;;;;5.01;87.66;100822.27;5249605;54;1142547;-85
2020/12/14 12:08:55;;;;;;;272.90;91.77;;;;;;;5.05;87.62;100825.11;5311973;55;1140408;-83
2020/12/14 12:14:00;;;;;;;204.80;74.97;;;;;;;5.14;87.56;100828.13;5248125;54;1142467;-82
2020/12/14 12:19:06;;;;;;;145.83;53.97;;;;;;;5.26;87.57;100822.73;5262064;54;1142425;-84
2020/12/14 12:24:12;;;;;;;151.20;56.17;;;;;;;5.36;87.31;100814.77;5239208;54;1142420;-82
2020/12/14 12:29:19;;;;;;;154.57;56.10;;;;;;;5.38;87.03;100805.05;5242823;54;1142468;-83
2020/12/14 12:34:36;;;;;;;151.17;56.97;;;;;;;5.38;87.03;100805.05;5239615;54;1142735;-83
2020/12/14 12:39:43;;;;;;;203.52;78.28;;;;;;;5.43;86.76;100813.53;5267389;54;1142570;-85
2020/12/14 12:44:48;;;;;;;263.10;112.20;;;;;;;5.43;86.58;100812.23;5243338;54;1143167;-83
2020/12/14 12:49:54;;;;;;;209.23;81.53;;;;;;;5.42;86.45;100824.11;5316720;54;1144440;-83
2020/12/14 12:55:00;;;;;;;173.00;75.07;;;;;;;5.37;86.47;100832.20;5355633;55;21116;-84
2020/12/14 13:00:07;;;;;;;140.75;54.15;;;;;;;5.32;86.46;100830.76;5248333;54;1138212;-82
2020/12/14 13:05:13;;;;;;;155.17;59.90;;;;;;;5.31;86.45;100831.22;5202627;55;1142844;-82
2020/12/14 13:10:18;;;;;;;175.33;73.10;;;;;;;5.34;86.41;100824.98;5210686;54;1143034;-82
2020/12/14 13:15:24;;;;;;;153.62;60.73;;;;;;;5.33;86.47;100820.19;5209902;55;1142840;-83
2020/12/14 13:20:29;;;;;;;154.97;63.47;;;;;;;5.35;86.60;100826.67;5236177;54;1140594;-83
2020/12/14 13:25:35;;;;;;;134.57;52.13;;;;;;;5.33;86.23;100818.03;5265405;54;1142669;-83
2020/12/14 13:30:40;;;;;;;155.73;58.87;;;;;;;5.33;86.22;100815.41;5262128;54;1142740;-83
2020/12/14 13:35:46;;;;;;;192.73;78.80;;;;;;;5.36;86.34;100812.14;5253151;54;1143498;-81
2020/12/14 13:40:51;;;;;;;316.47;128.33;;;;;;;5.38;86.37;100824.72;5253357;54;1142693;-81
2020/12/14 13:45:57;;;;;;;170.30;70.17;;;;;;;5.37;86.31;100824.33;5265625;54;1142495;-82
2020/12/14 13:51:03;;;;;;;146.87;59.70;;;;;;;5.37;86.19;100819.55;5262218;54;1143115;-82
2020/12/14 13:56:08;;;;;;;175.00;72.55;;;;;;;5.39;86.13;100819.02;5257068;54;1142826;-81
2020/12/14 14:01:14;;;;;;;164.93;66.83;;;;;;;5.43;86.09;100820.56;5263077;54;1142739;-82
2020/12/14 14:06:20;;;;;;;171.10;67.63;;;;;;;5.42;86.11;100821.48;5281516;54;1142375;-81
2020/12/14 14:11:54;;;;;;;214.83;84.17;;;;;;;5.37;86.13;100812.53;5327014;54;1140440;-81
2020/12/14 14:17:00;;;;;;;214.60;78.50;;;;;;;5.33;86.00;100816.26;5261565;54;1142663;-82
2020/12/14 14:22:05;;;;;;;223.40;101.13;;;;;;;5.32;86.21;100804.53;5327180;54;1140504;-81
2020/12/14 14:27:11;;;;;;;204.67;90.50;;;;;;;5.32;85.98;100800.14;5265928;54;1144577;-82
2020/12/14 14:32:17;;;;;;;208.87;87.27;;;;;;;5.29;85.86;100809.00;5266053;54;1142430;-83
2020/12/14 14:37:22;;;;;;;201.70;83.23;;;;;;;5.19;85.87;100795.14;5300345;54;1140634;-86
2020/12/14 14:42:28;;;;;;;205.67;85.47;;;;;;;5.13;85.73;100796.28;5266143;54;1142542;-85
2020/12/14 14:47:34;;;;;;;247.47;98.80;;;;;;;5.09;85.66;100790.80;5265952;54;1142558;-86
2020/12/14 14:52:39;;;;;;;266.10;133.53;;;;;;;5.03;85.65;100785.89;5263540;54;1142859;-85
2020/12/14 14:57:47;;;;;;;206.47;85.97;;;;;;;4.97;85.75;100789.27;5283982;54;1142560;-83
2020/12/14 15:02:52;;;;;;;182.23;78.33;;;;;;;4.88;85.72;100791.90;5268623;54;1142391;-83
2020/12/14 15:07:58;;;;;;;192.13;78.50;;;;;;;4.86;85.69;100795.91;5371173;55;21120;-83
2020/12/14 15:13:04;;;;;;;210.23;81.02;;;;;;;4.78;85.53;100797.19;5309218;54;1138363;-83
2020/12/14 15:18:09;;;;;;;203.17;82.73;;;;;;;4.71;85.57;100794.04;5329631;54;1138325;-83
2020/12/14 15:23:15;;;;;;;173.00;74.27;;;;;;;4.67;85.38;100791.17;5345105;55;21060;-83
2020/12/14 15:28:20;;;;;;;180.60;76.77;;;;;;;4.60;85.20;100788.45;5297667;54;1138446;-83
2020/12/14 15:33:26;;;;;;;195.10;81.93;;;;;;;4.53;85.21;100792.30;5268001;54;1142504;-83
2020/12/14 15:38:32;;;;;;;183.67;78.77;;;;;;;4.45;85.27;100790.50;5350438;54;1138353;-83
2020/12/14 15:43:39;;;;;;;161.90;67.07;;;;;;;4.39;85.23;100786.42;5329922;54;1142732;-83
2020/12/14 15:48:45;;;;;;;151.27;65.40;;;;;;;4.32;85.58;100795.48;5254000;54;1142723;-83
2020/12/14 15:53:51;;;;;;;167.82;74.60;;;;;;;4.30;85.53;100792.54;5288417;54;1142536;-83
2020/12/14 15:58:56;;;;;;;172.65;81.57;;;;;;;4.23;85.63;100788.08;5267702;54;1140601;-83
2020/12/14 16:04:02;;;;;;;190.37;72.40;;;;;;;4.16;85.62;100790.57;5267670;54;1141510;-84
2020/12/14 16:09:07;;;;;;;141.67;56.93;;;;;;;4.11;85.58;100796.05;5259324;54;1140753;-84
2020/12/14 16:14:13;;;;;;;154.67;64.43;;;;;;;4.07;85.69;100798.86;5304549;54;1142389;-83
2020/12/14 16:19:19;;;;;;;133.17;58.97;;;;;;;4.02;85.58;100800.38;5267304;54;1142645;-83
2020/12/14 16:24:24;;;;;;;142.50;62.17;;;;;;;3.93;86.03;100794.73;5266944;54;1140344;-83
2020/12/14 16:29:38;;;;;;;128.57;54.83;;;;;;;3.91;85.83;100785.64;5287519;54;1142446;-84
2020/12/14 16:34:39;;;;;;;153.20;67.27;;;;;;;3.89;85.75;100784.39;5263471;54;1142489;-84
2020/12/14 16:39:47;;;;;;;163.50;69.57;;;;;;;3.84;85.76;100784.20;5368960;55;21178;-84
2020/12/14 16:44:53;;;;;;;143.40;62.77;;;;;;;3.77;85.71;100781.04;5266924;54;1136483;-84
2020/12/14 16:49:59;;;;;;;175.73;78.63;;;;;;;3.71;85.88;100789.15;5280277;54;1142367;-84
2020/12/14 16:55:05;;;;;;;198.67;91.40;;;;;;;3.70;85.68;100778.30;5304855;54;1142645;-84
2020/12/14 17:00:10;;;;;;;199.17;94.97;;;;;;;3.66;85.63;100785.91;5260588;54;1140372;-83
2020/12/14 17:05:17;;;;;;;159.37;71.60;;;;;;;3.57;85.92;100783.69;5324178;54;1140311;-83
2020/12/14 17:10:25;;;;;;;142.83;62.20;;;;;;;3.59;85.64;100796.24;5256523;54;1140778;-83
2020/12/14 17:15:31;;;;;;;145.10;60.53;;;;;;;3.58;85.56;100791.92;5240929;54;1142674;-83
2020/12/14 17:20:39;;;;;;;124.83;58.30;;;;;;;3.58;85.41;100795.00;5289091;54;1142392;-83
2020/12/14 17:25:45;;;;;;;131.97;59.33;;;;;;;3.52;85.35;100800.88;5347737;55;21486;-83
2020/12/14 17:30:50;;;;;;;137.10;59.60;;;;;;;3.48;85.23;100809.80;5244039;55;1136518;-83
2020/12/14 17:35:56;;;;;;;129.73;57.17;;;;;;;3.46;85.18;100806.86;5266956;54;1142608;-83
2020/12/14 17:41:02;;;;;;;148.55;65.50;;;;;;;3.42;85.15;100807.44;5245759;54;1142938;-83
2020/12/14 17:46:07;;;;;;;126.55;56.68;;;;;;;3.34;85.24;100804.33;5245904;55;1140750;-83
2020/12/14 17:51:17;;;;;;;132.93;57.30;;;;;;;3.26;85.44;100795.09;5249041;54;1140477;-83
2020/12/14 17:56:23;;;;;;;151.57;67.80;;;;;;;3.22;85.25;100800.91;5251610;54;1140487;-84
2020/12/14 18:01:32;;;;;;;126.50;55.53;;;;;;;3.18;85.30;100798.91;5272005;54;1142626;-83
2020/12/14 18:06:38;;;;;;;133.43;55.90;;;;;;;3.16;85.41;100792.03;5250625;54;1140434;-83
2020/12/14 18:11:43;;;;;;;137.13;55.10;;;;;;;3.11;85.31;100788.30;5269800;54;1140350;-84
2020/12/14 18:16:49;;;;;;;124.35;55.28;;;;;;;3.08;85.20;100783.66;5252099;54;1149066;-83
2020/12/14 18:21:55;;;;;;;134.87;54.57;;;;;;;3.05;85.20;100774.21;5271482;54;1142400;-83
2020/12/14 18:27:05;;;;;;;188.85;63.15;;;;;;;3.02;85.22;100769.11;5250191;54;1140329;-83
2020/12/14 21:25:36;;;;;;;99.35;41.95;;;;;;;2.54;83.85;100782.44;5283405;55;1140358;-84
2020/12/14 21:30:43;;;;;;;93.70;39.75;;;;;;;2.51;83.57;100792.14;5292410;55;1138321;-84
2020/12/14 21:35:48;;;;;;;105.15;43.50;;;;;;;2.48;83.55;100788.73;5243923;54;1138429;-84
2020/12/14 21:40:54;;;;;;;96.40;43.80;;;;;;;2.50;83.50;100789.98;5341659;55;1140535;-84
2020/12/14 21:45:59;;;;;;;90.80;39.48;;;;;;;2.48;83.50;100787.89;5271115;54;1138692;-84
2020/12/14 21:51:05;;;;;;;93.37;41.77;;;;;;;2.46;83.52;100797.08;5273935;55;1138322;-84
2020/12/14 21:56:12;;;;;;;160.50;71.67;;;;;;;2.47;83.40;100804.00;5270128;54;1138371;-84
2020/12/14 22:01:23;;;;;;;108.57;48.60;;;;;;;2.45;83.31;100810.19;5271882;54;1140460;-84
2020/12/14 22:06:30;;;;;;;119.63;48.47;;;;;;;2.41;83.39;100807.33;5265414;55;1140985;-84
2020/12/14 22:11:36;;;;;;;107.10;45.73;;;;;;;2.32;83.35;100809.83;5256905;54;1140850;-84
2020/12/14 22:16:41;;;;;;;102.67;44.63;;;;;;;2.29;83.29;100806.02;5288386;55;1141508;-84
2020/12/14 22:21:47;;;;;;;117.27;49.60;;;;;;;2.25;83.23;100809.69;5253149;54;1140565;-84
2020/12/14 22:26:52;;;;;;;113.30;48.80;;;;;;;2.21;83.35;100815.92;5245134;55;1140480;-84
2020/12/14 22:31:58;;;;;;;119.77;48.65;;;;;;;2.16;83.46;100806.11;5252584;54;1140539;-84
2020/12/14 22:37:03;;;;;;;110.83;43.70;;;;;;;2.11;83.33;100799.78;5257624;54;1140425;-84
2020/12/14 22:42:09;;;;;;;128.40;55.20;;;;;;;2.09;83.37;100804.20;5277260;54;1140326;-83
2020/12/14 22:47:15;;;;;;;106.70;49.00;;;;;;;2.14;83.51;100809.23;5255581;54;1140384;-84
2020/12/14 22:52:20;;;;;;;96.33;40.77;;;;;;;2.18;83.55;100816.48;5308476;54;1140312;-84
2020/12/14 22:57:26;;;;;;;112.87;45.63;;;;;;;2.15;83.44;100813.53;5256648;54;1138700;-84
2020/12/14 23:02:32;;;;;;;107.60;44.37;;;;;;;2.14;83.29;100813.14;5269394;54;1140490;-84
2020/12/14 23:07:37;;;;;;;100.20;42.07;;;;;;;2.14;83.23;100829.28;5252250;54;1140795;-84
2020/12/14 23:12:43;;;;;;;119.30;49.30;;;;;;;2.09;83.15;100819.86;5271151;54;1140524;-84
2020/12/14 23:17:48;;;;;;;101.33;44.40;;;;;;;1.99;83.18;100820.23;5252476;54;1140490;-84
2020/12/14 23:22:54;;;;;;;114.57;47.75;;;;;;;1.93;83.34;100835.69;5257962;54;1140379;-84
2020/12/14 23:34:23;;;;;;;120.87;49.57;;;;;;;1.90;83.50;100841.46;5312666;54;1138412;-84
2020/12/14 23:39:29;;;;;;;105.47;45.97;;;;;;;1.90;83.65;100838.86;5276941;54;1140407;-83
2020/12/14 23:44:34;;;;;;;112.93;47.67;;;;;;;1.89;83.42;100827.57;5258096;54;1140961;-83
2020/12/14 23:49:39;;;;;;;108.87;48.50;;;;;;;1.88;83.24;100818.50;5302527;54;1141118;-83
2020/12/14 23:54:46;;;;;;;119.10;49.40;;;;;;;1.83;83.23;100813.92;5287148;54;1140346;-83
2020/12/14 23:59:51;;;;;;;113.22;49.45;;;;;;;1.70;83.45;100801.31;5224784;54;1140502;-83
